Thursday, November 23, 2017, 1:23 PM EST
Back to Local

KNUI, Knui Webster Field Annex

Location: Saint Inigoes, MD, United States Lat: 38.15
Local Time: 1:23 PM EST (18:23 GMT) Lon: -76.417
Time Zone: US/Eastern Elev: 19 ft

Show me the last for .
Show Decoded

2017-11-23 12:53 METAR KNUI 231753Z AUTO 25005KT 10SM CLR 05/M04 A3012 RMK AO2 SLP198 T00501039
                 10056 20011 58024 =
2017-11-23 11:53 METAR KNUI 231653Z AUTO 28005KT 10SM CLR 04/M05 A3014 RMK AO2 SLP206 T00441050 =
2017-11-23 10:53 METAR KNUI 231553Z AUTO 32005KT 10SM CLR 04/M05 A3017 RMK AO2 SLP215 T00441050 =
2017-11-23 09:53 METAR KNUI 231453Z AUTO VRB04KT 10SM CLR 04/M04 A3019 RMK AO2 SLP222 T00441044
                 50006 =
2017-11-23 08:53 METAR KNUI 231353Z AUTO 33007KT 10SM CLR 04/M04 A3019 RMK AO2 SLP223 T00391039 =
2017-11-23 07:53 METAR KNUI 231253Z AUTO 31005KT 10SM CLR 02/M03 A3020 RMK AO2 SLP226 T00221033 =
2017-11-23 06:53 METAR KNUI 231153Z AUTO VRB03KT 10SM CLR 01/M04 A3017 RMK AO2 SLP216 70001
                 T00111039 10028 20011 53004 =
2017-11-23 05:53 METAR KNUI 231053Z AUTO 30004KT 10SM CLR 01/M03 A3016 RMK AO2 SLP213 T00111033 =
2017-11-23 04:53 METAR KNUI 230953Z AUTO VRB03KT 10SM CLR 02/M03 A3016 RMK AO2 SLP211 T00171033 =
2017-11-23 03:53 METAR KNUI 230853Z AUTO 31005KT 10SM CLR 02/M03 A3016 RMK AO2 SLP212 T00171033
                 58002 =
2017-11-23 02:53 METAR KNUI 230753Z AUTO 29005KT 10SM CLR 02/M03 A3017 RMK AO2 SLP216 T00171033 =
2017-11-23 01:53 METAR KNUI 230653Z AUTO 29006KT 10SM CLR 02/M03 A3016 RMK AO2 SLP213 T00221028 =
2017-11-23 00:53 METAR KNUI 230553Z AUTO 30005KT 10SM CLR 03/M03 A3016 RMK AO2 SLP214 T00281028
                 10083 20028 50001 =
2017-11-22 23:53 METAR KNUI 230453Z AUTO 28003KT 10SM CLR 04/M03 A3017 RMK AO2 SLP215 T00391028
                 401560039 =
2017-11-22 22:53 METAR KNUI 230353Z AUTO VRB06KT 10SM CLR 04/M03 A3017 RMK AO2 SLP217 T00441028 =
2017-11-22 20:53 METAR KNUI 230153Z AUTO 29005KT 10SM CLR 06/M03 A3015 RMK AO2 SLP209 T00611028 =
2017-11-22 19:53 METAR KNUI 230053Z AUTO 31008G16KT 10SM CLR 07/M03 A3012 RMK AO2 SLP198
                 T00671028 =
2017-11-22 18:53 METAR KNUI 222353Z AUTO 30010G16KT 270V340 10SM CLR 08/M02 A3010 RMK AO2 SLP191
                 T00831017 10156 20083 51026 =
2017-11-22 17:53 METAR KNUI 222253Z AUTO 00000KT 10SM CLR 09/M01 A3008 RMK AO2 SLP185 T00891011 =
2017-11-22 16:53 METAR KNUI 222153Z AUTO VRB06KT 10SM CLR 10/M01 A3005 RMK AO2 SLP176 T01001011 =
2017-11-22 15:53 METAR KNUI 222053Z AUTO VRB06G17KT 10SM CLR 12/00 A3002 RMK AO2 SLP166 T01170000
                 53024 =
2017-11-22 14:53 METAR KNUI 221953Z AUTO 29012G21KT 10SM CLR 13/00 A2999 RMK AO2 SLP155 T01280000
                 =
2017-11-22 13:53 METAR KNUI 221853Z AUTO 30015G24KT 10SM CLR 14/02 A2997 RMK AO2 SLP147 T01440022
                 =

Support USWX by starting your Amazon purchase here.